Time;durP1;ratioP1;P1;durP2;ratioP2;P2;SDS_P1;SDS_P2;PMS_P1;PMS_P2;Temp;Humidity;BMP_temperature;BMP_pressure;BME280_temperature;BME280_humidity;BME280_pressure;Samples;Min_cycle;Max_cycle;Signal;HPM_P1;HPM_P2
2020/12/22 00:01:04;;;;;;;51.17;26.20;;;;;;;;;;5013298;28;20116;-82
2020/12/22 00:03:34;;;;;;;51.67;25.87;;;;;;;;;;5018420;28;20476;-81
2020/12/22 00:06:00;;;;;;;53.37;26.43;;;;;;;;;;5032756;28;20524;-81
2020/12/22 00:08:27;;;;;;;50.17;25.53;;;;;;;;;;5025482;28;20033;-81
2020/12/22 00:10:53;;;;;;;54.60;24.87;;;;;;;;;;5013212;28;20030;-81
2020/12/22 00:13:19;;;;;;;42.50;21.40;;;;;;;;;;5013345;28;20036;-81
2020/12/22 00:15:45;;;;;;;39.20;20.57;;;;;;;;;;5012194;28;20029;-81
2020/12/22 00:18:12;;;;;;;53.07;22.50;;;;;;;;;;5013408;28;20144;-82
2020/12/22 00:20:38;;;;;;;46.77;21.07;;;;;;;;;;5013409;28;20025;-81
2020/12/22 00:23:05;;;;;;;45.30;20.93;;;;;;;;;;5013042;28;20444;-81
2020/12/22 00:25:31;;;;;;;40.03;19.03;;;;;;;;;;5012456;28;20084;-81
2020/12/22 00:28:00;;;;;;;41.87;19.40;;;;;;;;;;5010784;28;20034;-81
2020/12/22 00:30:26;;;;;;;35.70;17.30;;;;;;;;;;5012823;28;20033;-82
2020/12/22 00:32:52;;;;;;;37.90;17.97;;;;;;;;;;5011613;28;20682;-81
2020/12/22 00:35:19;;;;;;;36.47;17.93;;;;;;;;;;5012301;28;20041;-82
2020/12/22 00:37:45;;;;;;;34.53;17.73;;;;;;;;;;5011423;28;20038;-82
2020/12/22 00:40:11;;;;;;;37.50;18.37;;;;;;;;;;5013841;28;20041;-81
2020/12/22 00:42:37;;;;;;;31.37;16.57;;;;;;;;;;5005461;28;20030;-81
2020/12/22 00:45:04;;;;;;;34.10;17.07;;;;;;;;;;5003737;28;20037;-82
2020/12/22 00:47:37;;;;;;;33.67;18.00;;;;;;;;;;5011696;28;20692;-82
2020/12/22 00:50:03;;;;;;;30.85;16.75;;;;;;;;;;5008413;28;20037;-81
2020/12/22 00:52:31;;;;;;;33.47;17.40;;;;;;;;;;4991976;28;20033;-81
2020/12/22 00:54:57;;;;;;;29.17;15.87;;;;;;;;;;4994357;28;20025;-81
2020/12/22 00:57:23;;;;;;;29.70;15.23;;;;;;;;;;5004890;28;20037;-82
2020/12/22 00:59:49;;;;;;;23.53;13.73;;;;;;;;;;5013428;28;20026;-82
2020/12/22 01:02:17;;;;;;;25.83;13.80;;;;;;;;;;5013293;28;20029;-82
2020/12/22 01:04:44;;;;;;;25.53;14.23;;;;;;;;;;5012739;28;20038;-82
2020/12/22 01:07:10;;;;;;;28.33;13.73;;;;;;;;;;4996127;28;20509;-82
2020/12/22 01:09:36;;;;;;;21.83;13.33;;;;;;;;;;4992258;28;20117;-82
2020/12/22 01:12:02;;;;;;;22.23;12.40;;;;;;;;;;4992313;28;20041;-81
2020/12/22 01:14:28;;;;;;;24.33;12.67;;;;;;;;;;5007483;28;20033;-82
2020/12/22 01:16:54;;;;;;;22.67;13.33;;;;;;;;;;5011244;28;20030;-82
2020/12/22 01:19:20;;;;;;;23.00;13.47;;;;;;;;;;5013074;28;20026;-82
2020/12/22 01:21:49;;;;;;;23.07;13.10;;;;;;;;;;5000546;28;20035;-80
2020/12/22 01:24:15;;;;;;;21.30;12.20;;;;;;;;;;5007447;28;20038;-80
2020/12/22 01:26:41;;;;;;;19.47;10.80;;;;;;;;;;5016256;28;20121;-80
2020/12/22 01:29:07;;;;;;;16.83;10.83;;;;;;;;;;5003329;28;20019;-78
2020/12/22 01:31:33;;;;;;;17.03;10.07;;;;;;;;;;4999796;28;20057;-80
2020/12/22 01:33:59;;;;;;;13.67;8.53;;;;;;;;;;5011295;28;20030;-80
2020/12/22 01:36:26;;;;;;;13.83;9.23;;;;;;;;;;5010527;28;20018;-79
2020/12/22 01:38:52;;;;;;;14.83;8.60;;;;;;;;;;5011694;28;20030;-80
2020/12/22 01:41:18;;;;;;;14.50;8.03;;;;;;;;;;5009920;28;20124;-82
2020/12/22 01:44:00;;;;;;;16.80;9.53;;;;;;;;;;5012138;28;20037;-82
2020/12/22 01:46:29;;;;;;;12.73;8.33;;;;;;;;;;5003223;28;20029;-81
2020/12/22 01:49:03;;;;;;;14.77;8.20;;;;;;;;;;4991893;28;20294;-82
2020/12/22 01:51:30;;;;;;;12.90;8.10;;;;;;;;;;4991697;28;20062;-81
2020/12/22 01:53:56;;;;;;;12.90;7.80;;;;;;;;;;4995576;28;20028;-79
2020/12/22 01:56:23;;;;;;;13.40;7.70;;;;;;;;;;5008625;28;20029;-78
2020/12/22 01:58:49;;;;;;;12.37;6.97;;;;;;;;;;5004888;28;20041;-79
2020/12/22 02:01:15;;;;;;;13.30;7.63;;;;;;;;;;5021702;28;20030;-79
2020/12/22 02:03:41;;;;;;;11.40;6.20;;;;;;;;;;5003186;28;20026;-78
2020/12/22 02:06:19;;;;;;;10.43;6.50;;;;;;;;;;5008539;28;20120;-80
2020/12/22 02:08:45;;;;;;;13.37;6.93;;;;;;;;;;5009778;28;20758;-78
2020/12/22 02:11:11;;;;;;;7.43;4.57;;;;;;;;;;5008702;28;20026;-79
2020/12/22 02:13:37;;;;;;;8.97;4.60;;;;;;;;;;5010623;28;20030;-79
2020/12/22 02:16:03;;;;;;;8.20;4.80;;;;;;;;;;5005469;28;20030;-78
2020/12/22 02:18:29;;;;;;;8.43;4.70;;;;;;;;;;5009545;28;20021;-79
2020/12/22 02:21:01;;;;;;;9.53;4.83;;;;;;;;;;5009385;28;20029;-78
2020/12/22 02:23:27;;;;;;;6.90;4.00;;;;;;;;;;5009021;28;20044;-79
2020/12/22 02:25:53;;;;;;;6.07;3.50;;;;;;;;;;5008770;28;20080;-80
2020/12/22 02:28:19;;;;;;;7.23;4.00;;;;;;;;;;5008281;28;20045;-78
2020/12/22 02:30:45;;;;;;;5.73;3.33;;;;;;;;;;5003097;28;20133;-79
2020/12/22 02:33:13;;;;;;;6.93;3.80;;;;;;;;;;4993402;28;20556;-79
2020/12/22 02:35:39;;;;;;;6.63;3.87;;;;;;;;;;5009135;28;20893;-79
2020/12/22 02:38:05;;;;;;;5.43;3.70;;;;;;;;;;5007924;28;20492;-78
2020/12/22 02:40:31;;;;;;;6.83;3.57;;;;;;;;;;5008919;28;20041;-81
2020/12/22 02:43:05;;;;;;;5.77;2.93;;;;;;;;;;5011077;28;20030;-81
2020/12/22 02:45:31;;;;;;;4.97;2.97;;;;;;;;;;5011078;28;20532;-81
2020/12/22 02:47:57;;;;;;;6.03;2.27;;;;;;;;;;5009363;28;20030;-80
2020/12/22 02:50:23;;;;;;;3.97;2.30;;;;;;;;;;5010147;28;20041;-80
2020/12/22 02:52:50;;;;;;;4.07;2.13;;;;;;;;;;5012002;28;20141;-81
2020/12/22 02:55:16;;;;;;;4.57;2.30;;;;;;;;;;5008505;28;20396;-78
2020/12/22 02:57:42;;;;;;;3.73;2.40;;;;;;;;;;5008780;28;20030;-78
2020/12/22 03:00:08;;;;;;;2.23;1.30;;;;;;;;;;5009348;28;20039;-80
2020/12/22 03:02:34;;;;;;;2.40;1.50;;;;;;;;;;5011277;28;20108;-80
2020/12/22 03:05:02;;;;;;;2.50;1.40;;;;;;;;;;5010964;28;20044;-78
2020/12/22 03:07:28;;;;;;;2.07;1.33;;;;;;;;;;5010539;28;20529;-78
2020/12/22 03:09:54;;;;;;;3.33;1.20;;;;;;;;;;5002524;28;20093;-78
2020/12/22 03:12:20;;;;;;;2.27;1.00;;;;;;;;;;5001588;28;20030;-78
2020/12/22 03:14:47;;;;;;;3.33;1.00;;;;;;;;;;5012078;28;20026;-78
2020/12/22 03:17:13;;;;;;;2.00;1.10;;;;;;;;;;5011625;28;20029;-79
2020/12/22 03:19:40;;;;;;;1.20;0.80;;;;;;;;;;5010561;28;20555;-79
2020/12/22 03:22:06;;;;;;;2.00;1.00;;;;;;;;;;5011353;28;20026;-79
2020/12/22 03:24:32;;;;;;;1.20;0.70;;;;;;;;;;5013723;28;20061;-79
2020/12/22 03:26:58;;;;;;;3.43;0.93;;;;;;;;;;5015904;28;20068;-79
2020/12/22 03:29:24;;;;;;;3.30;0.57;;;;;;;;;;5015191;28;20038;-78
2020/12/22 03:31:50;;;;;;;1.37;0.50;;;;;;;;;;5015395;28;20030;-80
2020/12/22 03:34:16;;;;;;;1.00;0.67;;;;;;;;;;5013995;28;20025;-78
2020/12/22 03:36:43;;;;;;;1.20;0.50;;;;;;;;;;5005461;28;20465;-79
2020/12/22 03:39:09;;;;;;;0.77;0.60;;;;;;;;;;5017047;28;20037;-79
2020/12/22 03:41:35;;;;;;;0.83;0.53;;;;;;;;;;5012439;28;20030;-78
2020/12/22 03:44:02;;;;;;;0.60;0.40;;;;;;;;;;5014865;28;20120;-78
2020/12/22 03:46:28;;;;;;;1.13;0.50;;;;;;;;;;5012410;28;20045;-78
2020/12/22 03:48:55;;;;;;;1.03;0.70;;;;;;;;;;5014752;28;20374;-79
2020/12/22 03:51:21;;;;;;;0.77;0.40;;;;;;;;;;4998144;28;20074;-78
2020/12/22 03:53:47;;;;;;;1.37;0.60;;;;;;;;;;4999509;28;20025;-78
2020/12/22 03:56:13;;;;;;;0.70;0.50;;;;;;;;;;5012962;28;20511;-79
2020/12/22 03:58:39;;;;;;;1.47;0.50;;;;;;;;;;5005484;28;20030;-78
2020/12/22 04:01:05;;;;;;;0.37;0.27;;;;;;;;;;4993156;28;20034;-78
2020/12/22 04:03:31;;;;;;;1.07;0.50;;;;;;;;;;5004344;28;20469;-78
2020/12/22 04:05:57;;;;;;;3.73;0.40;;;;;;;;;;5012075;28;20030;-79
2020/12/22 04:08:23;;;;;;;0.47;0.30;;;;;;;;;;5000338;28;20036;-79
2020/12/22 04:10:49;;;;;;;0.60;0.30;;;;;;;;;;5012358;28;20053;-78
2020/12/22 04:13:15;;;;;;;0.77;0.23;;;;;;;;;;5011099;28;20077;-79
2020/12/22 04:15:42;;;;;;;0.73;0.23;;;;;;;;;;4996061;28;20044;-79
2020/12/22 04:18:08;;;;;;;0.43;0.20;;;;;;;;;;5012075;28;20026;-79
2020/12/22 04:20:34;;;;;;;0.83;0.40;;;;;;;;;;5011409;28;20091;-79
2020/12/22 04:23:00;;;;;;;0.27;0.10;;;;;;;;;;4997943;28;20449;-78
2020/12/22 04:25:26;;;;;;;0.47;0.30;;;;;;;;;;5011454;28;20034;-78
2020/12/22 04:27:52;;;;;;;1.13;0.20;;;;;;;;;;5011335;28;20053;-78
2020/12/22 04:30:18;;;;;;;2.10;0.20;;;;;;;;;;5006778;28;20034;-78
2020/12/22 04:32:44;;;;;;;0.30;0.17;;;;;;;;;;5011523;28;20050;-78
2020/12/22 04:35:10;;;;;;;0.47;0.20;;;;;;;;;;5011982;28;20087;-78
2020/12/22 04:37:36;;;;;;;0.30;0.10;;;;;;;;;;5012407;28;20092;-78
2020/12/22 04:40:03;;;;;;;1.40;0.20;;;;;;;;;;5011946;28;20033;-79
2020/12/22 04:42:31;;;;;;;0.20;0.13;;;;;;;;;;5012795;28;20029;-78
2020/12/22 04:44:57;;;;;;;0.30;0.20;;;;;;;;;;5011723;28;20041;-78
2020/12/22 04:47:25;;;;;;;0.53;0.20;;;;;;;;;;5000381;28;20145;-78
2020/12/22 04:49:54;;;;;;;0.20;0.20;;;;;;;;;;4992220;28;20380;-80
2020/12/22 04:52:22;;;;;;;0.73;0.17;;;;;;;;;;5009119;28;20037;-78
2020/12/22 04:54:49;;;;;;;0.93;0.47;;;;;;;;;;5003632;28;20060;-78
2020/12/22 04:57:15;;;;;;;0.50;0.20;;;;;;;;;;5024125;28;20046;-78
2020/12/22 04:59:43;;;;;;;0.20;0.20;;;;;;;;;;5034889;28;20102;-78
2020/12/22 05:02:10;;;;;;;0.53;0.20;;;;;;;;;;5011321;28;20483;-78
2020/12/22 05:04:37;;;;;;;0.20;0.10;;;;;;;;;;5011703;28;20044;-78
2020/12/22 05:07:04;;;;;;;2.13;0.13;;;;;;;;;;5010357;28;20604;-79
2020/12/22 05:09:30;;;;;;;0.40;0.30;;;;;;;;;;5010857;28;20033;-78
2020/12/22 05:11:56;;;;;;;0.73;0.17;;;;;;;;;;5011101;28;20045;-78
2020/12/22 05:14:28;;;;;;;0.10;0.10;;;;;;;;;;5012279;28;20125;-80
2020/12/22 05:16:58;;;;;;;0.43;0.30;;;;;;;;;;5010700;28;20030;-79
2020/12/22 05:19:33;;;;;;;0.60;0.13;;;;;;;;;;5005091;28;20350;-78
2020/12/22 05:22:00;;;;;;;0.37;0.20;;;;;;;;;;4991615;28;20088;-79
2020/12/22 05:24:32;;;;;;;1.30;0.20;;;;;;;;;;5007393;28;20038;-78
2020/12/22 05:26:59;;;;;;;0.10;0.10;;;;;;;;;;5018138;28;20055;-80
2020/12/22 05:29:25;;;;;;;0.43;0.20;;;;;;;;;;5010457;28;20041;-77
2020/12/22 05:31:52;;;;;;;0.83;0.50;;;;;;;;;;5010068;28;20026;-77
2020/12/22 05:34:24;;;;;;;1.50;0.23;;;;;;;;;;5019231;28;20783;-80
2020/12/22 05:36:50;;;;;;;0.60;0.20;;;;;;;;;;5020429;28;20125;-80
2020/12/22 05:39:17;;;;;;;0.93;0.20;;;;;;;;;;5010423;28;20061;-79
2020/12/22 05:41:43;;;;;;;0.20;0.10;;;;;;;;;;5009879;28;20037;-78
2020/12/22 05:44:09;;;;;;;0.97;0.10;;;;;;;;;;5011782;28;20033;-80
2020/12/22 05:46:37;;;;;;;0.23;0.10;;;;;;;;;;5006573;28;20129;-79
2020/12/22 05:49:08;;;;;;;0.47;0.20;;;;;;;;;;5032837;28;20032;-79
2020/12/22 05:51:34;;;;;;;0.37;0.30;;;;;;;;;;5010477;28;20424;-78
2020/12/22 05:54:05;;;;;;;0.10;0.10;;;;;;;;;;5010762;28;20582;-78
2020/12/22 05:56:31;;;;;;;0.27;0.10;;;;;;;;;;5020895;28;20018;-79
2020/12/22 05:58:57;;;;;;;0.80;0.30;;;;;;;;;;5009831;28;20022;-78
2020/12/22 06:01:31;;;;;;;0.30;0.13;;;;;;;;;;5009663;28;20481;-78
2020/12/22 06:03:59;;;;;;;0.73;0.30;;;;;;;;;;5009004;28;20050;-78
2020/12/22 06:06:29;;;;;;;2.30;0.73;;;;;;;;;;5008534;28;20046;-79
2020/12/22 06:08:55;;;;;;;4.00;1.77;;;;;;;;;;5006693;28;20034;-78
2020/12/22 06:11:22;;;;;;;1.20;0.30;;;;;;;;;;5008653;28;20038;-79
2020/12/22 06:13:49;;;;;;;0.80;0.33;;;;;;;;;;5011023;28;20018;-78
2020/12/22 06:16:19;;;;;;;0.20;0.20;;;;;;;;;;5010433;28;20141;-79
2020/12/22 06:18:48;;;;;;;4.47;1.60;;;;;;;;;;5011251;28;20030;-79
2020/12/22 06:21:15;;;;;;;1.10;0.37;;;;;;;;;;5005512;28;20036;-79
2020/12/22 06:23:41;;;;;;;0.43;0.40;;;;;;;;;;5014606;28;20076;-79
2020/12/22 06:26:07;;;;;;;1.30;0.90;;;;;;;;;;5010981;28;20523;-80
2020/12/22 06:28:33;;;;;;;0.97;0.60;;;;;;;;;;5039818;28;20033;-79
2020/12/22 06:31:00;;;;;;;0.40;0.30;;;;;;;;;;5011826;28;20422;-78
2020/12/22 06:33:27;;;;;;;0.30;0.20;;;;;;;;;;5011544;28;20026;-79
2020/12/22 06:36:08;;;;;;;2.77;1.10;;;;;;;;;;5026502;28;20037;-79
2020/12/22 06:38:47;;;;;;;1.83;0.80;;;;;;;;;;5008948;28;20774;-79
2020/12/22 06:41:39;;;;;;;3.63;1.17;;;;;;;;;;5024850;28;20026;-79
2020/12/22 06:44:13;;;;;;;0.57;0.30;;;;;;;;;;5000239;28;20060;-79
2020/12/22 06:46:40;;;;;;;0.77;0.40;;;;;;;;;;5009778;28;20026;-79
2020/12/22 06:49:08;;;;;;;1.10;0.20;;;;;;;;;;5013020;28;20492;-79
2020/12/22 06:51:36;;;;;;;2.07;0.47;;;;;;;;;;5012485;28;20078;-79
2020/12/22 06:54:03;;;;;;;1.10;0.77;;;;;;;;;;5013413;28;20022;-79
2020/12/22 06:56:52;;;;;;;0.27;0.27;;;;;;;;;;5011533;28;20030;-81
2020/12/22 06:59:40;;;;;;;0.40;0.40;;;;;;;;;;5013836;28;20216;-80
2020/12/22 07:02:26;;;;;;;1.37;0.57;;;;;;;;;;5014363;28;20145;-79
2020/12/22 07:04:52;;;;;;;0.83;0.40;;;;;;;;;;5033935;28;20450;-79
2020/12/22 07:07:18;;;;;;;0.80;0.30;;;;;;;;;;5015313;28;20034;-79
2020/12/22 07:09:44;;;;;;;1.80;0.90;;;;;;;;;;5019085;28;20052;-79
2020/12/22 07:12:10;;;;;;;2.00;0.40;;;;;;;;;;5018878;28;20401;-78
2020/12/22 07:14:47;;;;;;;0.50;0.40;;;;;;;;;;5018685;28;20029;-81
2020/12/22 07:17:14;;;;;;;0.37;0.20;;;;;;;;;;4997414;28;20490;-79
2020/12/22 07:19:43;;;;;;;1.77;0.60;;;;;;;;;;4997248;28;20482;-79
2020/12/22 07:22:11;;;;;;;3.10;1.33;;;;;;;;;;5007213;28;20088;-79
2020/12/22 07:24:37;;;;;;;1.83;0.90;;;;;;;;;;5032353;28;20049;-80
2020/12/22 07:27:04;;;;;;;2.07;1.37;;;;;;;;;;5015303;28;20022;-81
2020/12/22 07:29:30;;;;;;;1.50;0.80;;;;;;;;;;5027480;28;20033;-80
2020/12/22 07:31:59;;;;;;;4.30;3.13;;;;;;;;;;5035963;28;20030;-79
2020/12/22 07:34:26;;;;;;;2.10;1.10;;;;;;;;;;5024570;28;20037;-80
2020/12/22 07:36:52;;;;;;;2.20;0.50;;;;;;;;;;5017023;28;20481;-79
2020/12/22 07:39:23;;;;;;;1.53;0.70;;;;;;;;;;5015734;28;20045;-79
2020/12/22 07:41:50;;;;;;;1.63;0.83;;;;;;;;;;5005823;28;20121;-79
2020/12/22 07:44:20;;;;;;;0.83;0.63;;;;;;;;;;5013532;28;20041;-79
2020/12/22 07:46:47;;;;;;;0.77;0.53;;;;;;;;;;5022524;28;20021;-80
2020/12/22 07:49:14;;;;;;;3.03;0.70;;;;;;;;;;5023506;28;20592;-79
2020/12/22 07:51:44;;;;;;;3.13;1.80;;;;;;;;;;5005775;28;20045;-80
2020/12/22 07:54:11;;;;;;;1.03;0.60;;;;;;;;;;5008892;28;20636;-79
2020/12/22 07:56:38;;;;;;;0.97;0.67;;;;;;;;;;5024638;28;20048;-80
2020/12/22 07:59:08;;;;;;;1.37;0.53;;;;;;;;;;5016077;28;20132;-79
2020/12/22 08:01:43;;;;;;;1.43;0.73;;;;;;;;;;5014706;28;20041;-80
2020/12/22 08:04:20;;;;;;;3.17;0.77;;;;;;;;;;5016730;28;20045;-79
2020/12/22 08:06:56;;;;;;;0.83;0.40;;;;;;;;;;5014363;28;20026;-79
2020/12/22 08:09:32;;;;;;;2.07;1.03;;;;;;;;;;5013129;28;20033;-80
2020/12/22 08:12:02;;;;;;;2.77;1.13;;;;;;;;;;5014523;28;20041;-81
2020/12/22 08:14:29;;;;;;;1.23;0.57;;;;;;;;;;5013272;28;20026;-79
2020/12/22 08:17:00;;;;;;;0.77;0.60;;;;;;;;;;5013163;28;20032;-79
2020/12/22 08:19:29;;;;;;;1.03;0.60;;;;;;;;;;5010769;28;20127;-80
2020/12/22 08:21:55;;;;;;;1.13;0.73;;;;;;;;;;5010959;28;20034;-80
2020/12/22 08:24:22;;;;;;;0.93;0.40;;;;;;;;;;5011260;28;20029;-80
2020/12/22 08:26:49;;;;;;;2.40;0.60;;;;;;;;;;5016546;28;20029;-79
2020/12/22 08:29:19;;;;;;;2.77;0.50;;;;;;;;;;5014740;28;20057;-79
2020/12/22 08:31:45;;;;;;;1.30;0.60;;;;;;;;;;5011545;28;20041;-79
2020/12/22 08:34:14;;;;;;;1.70;1.10;;;;;;;;;;5011503;28;20041;-80
2020/12/22 08:36:41;;;;;;;2.87;0.70;;;;;;;;;;5012579;28;20032;-79
2020/12/22 08:39:11;;;;;;;3.43;1.30;;;;;;;;;;5007677;28;20109;-80
2020/12/22 08:41:37;;;;;;;2.53;0.50;;;;;;;;;;5026857;28;20044;-80
2020/12/22 08:44:05;;;;;;;1.17;0.50;;;;;;;;;;5013341;28;20022;-79
2020/12/22 08:46:31;;;;;;;1.57;0.53;;;;;;;;;;5010622;28;20075;-80
2020/12/22 08:49:06;;;;;;;5.60;1.03;;;;;;;;;;5011841;28;20071;-79
2020/12/22 08:51:32;;;;;;;1.53;0.60;;;;;;;;;;5004716;28;20018;-78
2020/12/22 08:54:01;;;;;;;2.23;0.63;;;;;;;;;;5009069;28;20025;-78
2020/12/22 08:56:27;;;;;;;1.53;0.60;;;;;;;;;;5008883;28;20495;-78
2020/12/22 08:58:54;;;;;;;0.60;0.43;;;;;;;;;;5007121;28;20026;-78
2020/12/22 09:01:24;;;;;;;1.20;0.50;;;;;;;;;;5008279;28;20202;-78
2020/12/22 09:03:52;;;;;;;2.23;0.90;;;;;;;;;;5008485;28;20030;-78
2020/12/22 09:06:18;;;;;;;2.73;0.77;;;;;;;;;;5008130;28;20041;-78
2020/12/22 09:08:46;;;;;;;1.20;0.60;;;;;;;;;;5008347;28;20034;-77
2020/12/22 09:11:21;;;;;;;1.10;0.50;;;;;;;;;;5008887;28;20022;-77
2020/12/22 09:13:57;;;;;;;1.07;0.60;;;;;;;;;;5009642;28;20337;-77
2020/12/22 09:16:23;;;;;;;2.37;1.10;;;;;;;;;;5008813;28;20029;-78
2020/12/22 09:19:03;;;;;;;7.13;2.73;;;;;;;;;;5011808;28;20021;-78
2020/12/22 09:21:29;;;;;;;16.17;6.90;;;;;;;;;;5011461;28;20026;-79
2020/12/22 09:23:56;;;;;;;18.10;6.40;;;;;;;;;;5010443;28;20701;-80
2020/12/22 09:26:23;;;;;;;2.20;1.33;;;;;;;;;;5011085;28;20117;-80
2020/12/22 09:28:49;;;;;;;5.23;2.73;;;;;;;;;;5011686;28;20092;-78
2020/12/22 09:31:22;;;;;;;3.57;1.47;;;;;;;;;;5010274;28;20030;-78
2020/12/22 09:33:48;;;;;;;0.77;0.50;;;;;;;;;;5008507;28;20536;-76
2020/12/22 09:36:14;;;;;;;3.03;1.50;;;;;;;;;;5008078;28;20034;-79
2020/12/22 09:39:00;;;;;;;2.93;1.17;;;;;;;;;;5015494;28;20025;-76
2020/12/22 09:41:28;;;;;;;1.67;0.80;;;;;;;;;;4997851;28;20030;-77
2020/12/22 09:43:55;;;;;;;1.03;0.40;;;;;;;;;;5009728;28;20060;-78
2020/12/22 09:46:21;;;;;;;1.70;0.83;;;;;;;;;;5009501;28;20026;-77
2020/12/22 09:48:50;;;;;;;2.80;1.33;;;;;;;;;;5026952;28;20026;-77
2020/12/22 09:51:16;;;;;;;2.53;1.03;;;;;;;;;;5024206;28;20087;-78
2020/12/22 09:53:43;;;;;;;4.70;2.17;;;;;;;;;;5016883;28;20025;-78
2020/12/22 09:56:09;;;;;;;0.90;0.53;;;;;;;;;;5011666;28;20377;-78
2020/12/22 09:58:35;;;;;;;1.23;0.60;;;;;;;;;;5024460;28;20064;-78
2020/12/22 10:01:01;;;;;;;3.87;0.80;;;;;;;;;;5008120;28;20112;-78
2020/12/22 10:03:27;;;;;;;0.90;0.60;;;;;;;;;;5003242;28;20049;-77
2020/12/22 10:05:53;;;;;;;2.10;0.97;;;;;;;;;;5008599;28;20478;-78
2020/12/22 10:08:19;;;;;;;2.47;0.50;;;;;;;;;;5010225;28;20037;-77
2020/12/22 10:10:45;;;;;;;2.20;0.87;;;;;;;;;;5026229;28;20041;-78
2020/12/22 10:13:11;;;;;;;2.60;1.20;;;;;;;;;;5026912;28;20029;-78
2020/12/22 10:15:37;;;;;;;1.50;0.63;;;;;;;;;;5023229;28;20052;-78
2020/12/22 10:18:09;;;;;;;3.10;1.13;;;;;;;;;;5022633;28;20056;-78
2020/12/22 10:20:38;;;;;;;1.20;0.70;;;;;;;;;;5006575;28;20026;-79
2020/12/22 10:23:04;;;;;;;2.10;0.90;;;;;;;;;;5012896;28;20044;-79
2020/12/22 10:25:31;;;;;;;0.90;0.30;;;;;;;;;;5006349;28;20036;-77
2020/12/22 10:27:57;;;;;;;1.83;1.10;;;;;;;;;;5006326;28;20037;-77
2020/12/22 10:30:23;;;;;;;0.93;0.47;;;;;;;;;;5007191;28;20040;-80
2020/12/22 10:32:49;;;;;;;2.97;0.70;;;;;;;;;;5008373;28;20030;-78
2020/12/22 10:35:16;;;;;;;0.97;0.70;;;;;;;;;;5023119;28;20037;-78
2020/12/22 10:37:42;;;;;;;1.17;0.80;;;;;;;;;;5015938;28;20030;-78
2020/12/22 10:40:08;;;;;;;1.17;0.80;;;;;;;;;;5011597;28;20033;-78
2020/12/22 10:42:34;;;;;;;2.80;0.70;;;;;;;;;;5014571;28;20030;-78
2020/12/22 10:45:00;;;;;;;2.00;0.50;;;;;;;;;;5009388;28;20084;-79
2020/12/22 10:47:26;;;;;;;2.10;0.90;;;;;;;;;;5006878;28;20034;-78
2020/12/22 10:49:52;;;;;;;2.23;1.10;;;;;;;;;;5018437;28;20177;-78
2020/12/22 10:52:18;;;;;;;3.33;0.80;;;;;;;;;;5009898;28;20559;-78
2020/12/22 10:54:44;;;;;;;7.27;2.83;;;;;;;;;;5022964;28;20026;-78
2020/12/22 10:57:10;;;;;;;5.23;2.00;;;;;;;;;;5027362;28;20035;-77
2020/12/22 10:59:36;;;;;;;5.30;1.90;;;;;;;;;;5012435;28;20021;-79
2020/12/22 11:02:02;;;;;;;5.97;2.67;;;;;;;;;;5010641;28;20508;-80
2020/12/22 11:04:28;;;;;;;3.07;1.30;;;;;;;;;;5008551;28;20030;-79
2020/12/22 11:07:11;;;;;;;2.70;1.30;;;;;;;;;;5006501;28;20041;-78
2020/12/22 11:09:37;;;;;;;7.30;3.97;;;;;;;;;;5006488;28;20037;-78
2020/12/22 11:12:04;;;;;;;4.70;1.90;;;;;;;;;;5011448;28;20746;-78
2020/12/22 11:14:30;;;;;;;4.43;1.70;;;;;;;;;;5016209;28;20076;-78
2020/12/22 11:16:56;;;;;;;4.07;1.43;;;;;;;;;;5004829;28;20036;-78
2020/12/22 11:19:23;;;;;;;2.50;1.30;;;;;;;;;;5008137;28;20120;-77
2020/12/22 11:21:50;;;;;;;2.10;1.10;;;;;;;;;;5008437;28;20048;-78
2020/12/22 11:24:16;;;;;;;2.83;0.83;;;;;;;;;;5011005;28;20035;-78
2020/12/22 11:26:42;;;;;;;2.53;1.17;;;;;;;;;;5007666;28;20034;-78
2020/12/22 11:29:08;;;;;;;1.50;0.90;;;;;;;;;;5012673;28;20026;-78
2020/12/22 11:31:34;;;;;;;2.13;0.80;;;;;;;;;;5024415;28;20037;-78
2020/12/22 11:34:00;;;;;;;1.67;0.97;;;;;;;;;;5015657;28;20026;-78
2020/12/22 11:36:26;;;;;;;1.90;0.93;;;;;;;;;;5007507;28;20548;-78
2020/12/22 11:38:52;;;;;;;2.03;0.60;;;;;;;;;;5009734;28;20018;-78
2020/12/22 11:41:22;;;;;;;1.70;0.83;;;;;;;;;;5022845;28;20025;-78
2020/12/22 11:43:48;;;;;;;2.17;0.57;;;;;;;;;;5014248;28;20045;-78
2020/12/22 11:46:14;;;;;;;1.37;0.80;;;;;;;;;;5010772;28;20495;-77
2020/12/22 11:48:40;;;;;;;1.37;0.80;;;;;;;;;;5011851;28;20136;-78
2020/12/22 11:51:06;;;;;;;1.43;0.80;;;;;;;;;;5011638;28;20413;-78
2020/12/22 11:53:33;;;;;;;1.17;0.67;;;;;;;;;;5009794;28;20499;-78
2020/12/22 11:55:59;;;;;;;2.80;0.70;;;;;;;;;;5023469;28;20034;-78
2020/12/22 11:58:25;;;;;;;2.77;1.00;;;;;;;;;;5007939;28;20532;-79
2020/12/22 12:00:51;;;;;;;4.57;0.90;;;;;;;;;;5012757;28;20022;-78
2020/12/22 12:03:17;;;;;;;13.23;6.73;;;;;;;;;;5013619;28;20044;-79
2020/12/22 12:05:43;;;;;;;2.83;1.50;;;;;;;;;;5014473;28;20068;-78
2020/12/22 12:08:09;;;;;;;1.40;0.90;;;;;;;;;;5020063;28;20040;-78
2020/12/22 12:10:35;;;;;;;2.13;0.87;;;;;;;;;;5018044;28;20124;-78
2020/12/22 12:13:02;;;;;;;1.73;0.93;;;;;;;;;;5009527;28;20481;-78
2020/12/22 12:15:28;;;;;;;1.27;0.50;;;;;;;;;;5009441;28;20034;-78
2020/12/22 12:17:54;;;;;;;1.30;0.60;;;;;;;;;;4999639;28;20208;-78
2020/12/22 12:20:20;;;;;;;1.13;0.33;;;;;;;;;;5006206;28;20026;-77
2020/12/22 12:22:46;;;;;;;1.20;0.30;;;;;;;;;;5006444;28;20137;-77
2020/12/22 12:25:12;;;;;;;2.03;0.53;;;;;;;;;;5003343;28;20027;-78
2020/12/22 12:27:38;;;;;;;1.27;0.53;;;;;;;;;;5007283;28;20033;-78
2020/12/22 12:30:05;;;;;;;2.20;0.67;;;;;;;;;;5008084;28;20077;-77
2020/12/22 12:32:31;;;;;;;0.70;0.50;;;;;;;;;;5007506;28;20117;-77
2020/12/22 12:34:57;;;;;;;1.67;0.90;;;;;;;;;;5009022;28;20057;-77
2020/12/22 12:37:24;;;;;;;4.27;1.87;;;;;;;;;;5008857;28;20022;-77
2020/12/22 12:39:51;;;;;;;2.33;1.13;;;;;;;;;;5010878;28;20022;-78
2020/12/22 12:42:17;;;;;;;3.30;1.57;;;;;;;;;;5011588;28;20036;-77
2020/12/22 12:44:43;;;;;;;1.50;0.57;;;;;;;;;;5008400;28;20622;-77
2020/12/22 12:47:12;;;;;;;1.70;0.90;;;;;;;;;;5020800;28;20126;-78
2020/12/22 12:49:43;;;;;;;2.50;1.03;;;;;;;;;;5041379;28;20948;-78
2020/12/22 12:52:09;;;;;;;0.90;0.40;;;;;;;;;;5013645;28;20041;-80
2020/12/22 12:54:35;;;;;;;1.13;0.57;;;;;;;;;;5023209;28;20108;-78
2020/12/22 12:57:01;;;;;;;1.07;0.60;;;;;;;;;;5011189;28;20022;-78
2020/12/22 12:59:28;;;;;;;1.77;0.60;;;;;;;;;;5010315;28;20030;-78
2020/12/22 13:01:55;;;;;;;1.27;0.80;;;;;;;;;;5009981;28;20104;-80
2020/12/22 13:04:21;;;;;;;3.07;0.90;;;;;;;;;;5010870;28;20497;-78
2020/12/22 13:06:47;;;;;;;3.70;1.87;;;;;;;;;;5005139;28;20060;-78
2020/12/22 13:09:13;;;;;;;3.80;1.33;;;;;;;;;;5022699;28;20042;-78
2020/12/22 13:11:39;;;;;;;1.13;0.60;;;;;;;;;;5026790;28;20872;-79
2020/12/22 13:14:05;;;;;;;2.83;1.00;;;;;;;;;;5023520;28;20026;-80
2020/12/22 13:16:31;;;;;;;1.10;0.60;;;;;;;;;;5028835;28;20401;-78
2020/12/22 13:18:57;;;;;;;3.03;1.27;;;;;;;;;;5026158;28;20029;-78
2020/12/22 13:21:24;;;;;;;2.07;1.10;;;;;;;;;;5010367;28;20022;-78
2020/12/22 13:23:50;;;;;;;2.40;0.90;;;;;;;;;;5009488;28;20037;-78
2020/12/22 13:26:17;;;;;;;1.33;0.70;;;;;;;;;;5008293;28;20557;-78
2020/12/22 13:28:45;;;;;;;2.17;0.80;;;;;;;;;;5006844;28;20030;-79
2020/12/22 13:31:11;;;;;;;2.30;0.83;;;;;;;;;;5012362;28;20044;-78
2020/12/22 13:33:37;;;;;;;1.83;0.87;;;;;;;;;;5007637;28;20030;-78
2020/12/22 13:36:04;;;;;;;1.73;1.27;;;;;;;;;;5009731;28;20592;-78
2020/12/22 13:38:30;;;;;;;1.20;0.90;;;;;;;;;;5005494;28;20478;-79
2020/12/22 13:40:56;;;;;;;1.97;0.70;;;;;;;;;;4993335;28;20026;-77
2020/12/22 13:43:22;;;;;;;1.53;0.90;;;;;;;;;;5008396;28;20569;-78
2020/12/22 13:45:49;;;;;;;0.60;0.57;;;;;;;;;;5007163;28;20109;-77
2020/12/22 13:48:15;;;;;;;3.20;1.23;;;;;;;;;;5008153;28;20038;-78
2020/12/22 13:50:41;;;;;;;3.17;1.00;;;;;;;;;;5007455;28;20125;-78
2020/12/22 13:53:07;;;;;;;1.87;1.07;;;;;;;;;;5007703;28;20038;-78
2020/12/22 13:55:33;;;;;;;3.00;1.23;;;;;;;;;;5019263;28;20521;-78
2020/12/22 13:57:59;;;;;;;4.73;2.23;;;;;;;;;;5006474;28;20026;-78
2020/12/22 14:00:25;;;;;;;1.87;1.00;;;;;;;;;;4990416;28;20050;-77
2020/12/22 14:02:51;;;;;;;2.60;1.40;;;;;;;;;;5011436;28;20022;-78
2020/12/22 14:05:17;;;;;;;3.87;1.53;;;;;;;;;;5009033;28;20029;-78
2020/12/22 14:07:43;;;;;;;6.17;3.87;;;;;;;;;;5000614;28;20038;-78
2020/12/22 14:10:09;;;;;;;6.20;3.93;;;;;;;;;;5020709;28;20060;-77
2020/12/22 14:12:35;;;;;;;2.70;1.50;;;;;;;;;;5040252;28;20665;-77
2020/12/22 14:15:02;;;;;;;1.93;1.13;;;;;;;;;;5010742;28;20052;-79
2020/12/22 14:17:28;;;;;;;2.27;1.20;;;;;;;;;;5005845;28;20034;-79
2020/12/22 14:19:54;;;;;;;3.23;1.90;;;;;;;;;;4995354;28;20481;-79
2020/12/22 14:22:20;;;;;;;1.60;0.87;;;;;;;;;;5007605;28;20044;-79
2020/12/22 14:24:46;;;;;;;2.80;1.37;;;;;;;;;;5007735;28;20034;-78
2020/12/22 14:27:14;;;;;;;2.53;1.30;;;;;;;;;;5005305;28;20030;-77
2020/12/22 14:29:42;;;;;;;4.43;1.80;;;;;;;;;;5007435;28;20489;-77
2020/12/22 14:32:12;;;;;;;5.07;3.03;;;;;;;;;;5008507;28;20034;-77
2020/12/22 14:34:39;;;;;;;5.40;2.80;;;;;;;;;;5006543;28;20026;-78
2020/12/22 14:37:05;;;;;;;6.67;3.27;;;;;;;;;;4986118;28;20033;-77
2020/12/22 14:39:32;;;;;;;3.10;1.90;;;;;;;;;;4986521;28;20026;-77
2020/12/22 14:41:58;;;;;;;3.87;2.27;;;;;;;;;;4995745;28;20489;-77